Redwood City, CA (94065)

20:58 PDT le 28 juillet 2016 (GMT -0700)
Belmont - Island Park | | Change Station

Alt. 25 ft 37.53 °N, 122.27 °W | Updated 1 second ago

Mostly Cloudy
Nuageux
62.2 ° F
Paraît 62.2 ° F
N
0.0
Vent Variable Vent de ONO
Gusts 6.0 mph

Aujourd'hui
Haut(e) -- | Bas -- ° F
--% Risque de précip.
Hier
Haut(e) -- | Bas -- ° F
Precip. -- pouce
Pression 29.86 pouce
Visibilité 10.0 Miles terrestres
Nuages Nuageux 20000 ft
Point de rosée 54 ° F
Humidité 73%
Précipitations 0.00 pouce
Profondeur de la couche neigeuse Non disponible.
6:10 AM 8:20 PM
Lune descendante, 26% visible
METAR KSQL 290347Z 34004KT 10SM BKN200 18/12 A2986 RMK LAST
Pression 29.86 pouce
Visibilité 10.0 Miles terrestres
Nuages Nuageux 20000 ft
Point de rosée 54 ° F
Humidité 73%
Précipitations 0.00 pouce
Profondeur de la couche neigeuse Non disponible.
6:10 AM 8:20 PM
Lune descendante, 26% visible
METAR KSQL 290347Z 34004KT 10SM BKN200 18/12 A2986 RMK LAST

10-Day Weather Forecast

Almanac

Astronomie

Jul. 28, 2016 Lever Coucher
Temps réel
Crépuscule civil
Crépuscule nautique
Crépuscule astronomique
Lune
Durée de lumière visible
Longueur du jour
Tomorrow will be .
, % of the Moon is Illuminated

Extrêmes aujourd'hui

State Highs State Lows

Community

WunderPhotos

Upload Photos

1,928,286 Photos téléchargées !

WunderBlog® & News

Nearby

Qualité de l'air

  Qualité de l'air Indice de la qualité de l'air Polluant
Not available.

Épaisseur de neige

Station Depth Altitude

Activité sismique

Ville Distance Mag. Time & Date
Minimum magnitude displayed is 2.5.

Températures des eaux côtières

Lieu Température

Stations

Stations météo à proximité

Emplacement de la station Température Refroidissement éolien Point de rosée Humidité Vent Precip. Alt. Mise à jour Type
                   

Watches & Warnings

There are currently no watches in effect.